עמוד ראשי
METAR-TAF:

METAR-TAF

שדות תעופה :

King Salmon, אלסקה, ארצות הברית

קו רוחב: 58-40-36N, קו אורך: 156-38-57W, גובה: 17מטר

תצפית מזג אוויר נוכחית

הדו"ח נערך לפני 28דקות, בשעה 05:54 UTC
רוח 11קשר מכיוון מערב
טמפרטורת 13 צלסיוס
לחות 58%
לחץ 1023 hPa
ראות: 16.1קילומטר
מעט עננים בגובה 11000רגל
מעט עננים בגובה 20000רגל

METAR: PAKN 140554Z 28011KT 10SM FEW110 FEW200 13/05 A3021 RMK AO2 SLP228 T01330050 10178 20133 58002

זמן: 22:22 (06:22 UTC)

תחזית

הדו"ח נערך לפני 48דקות, בשעה 05:34 UTC
תחזית בתוקף מ 14 ב 06 UTC עד 15 ב 06 UTC
רוח 14קשר מכיוון מערב
ראות: 10קילומטר
מעט עננים בגובה 7000רגל
עננים פזורים בגובה 11000רגל
מ 14 ב 1300UTC
רוח 5קשר מכיוון מערב/דרום-מערב
ראות: 0.8קילומטר
עננים בינוניים בגובה 7000רגל
ערפל
מ 14 ב 1800UTC
רוח 6קשר מכיוון מערב/דרום-מערב
ראות: 9.7קילומטר
עננים בינוניים בגובה 8000רגל
אד
מ 15 ב 0100UTC
רוח 10קשר מכיוון מערב/צפון-מערב
ראות: 10קילומטר
עננים בינוניים בגובה 10000רגל

TAF: PAKN 140534Z 1406/1506 27014KT P6SM FEW070 SCT110 FM141300 24005KT 1/2SM FG BKN070 FM141800 25006KT 6SM BR BKN080 FM150100 29010KT P6SM BKN100

תצפיות ותחזיות מזג אוויר לגבי יותר מ- 4,000 שדות תעופה ברחבי העולם. דוחות METAR ו- TAF.

התחנות הזמינות מסומנות בנקודות צהובות ואדומות על גבי המפה.

העבר את העכבר לנקודה הצבעונית על מנת לראות את שם התחנה.

לאחר מכן, לחץ כדי לראות את תוכן ואת תחזיות מזג האוויר.

כדי לשנות את המפה: לחץ על הכפתורים הירוקים עם הפלוס השחור כדי להתקרב; על הכפתור הירוק עם המקף כדי להתרחק; או בחיצים הירוקים למפות סמוכות.


METAR-TAF: